Thebes, Arkansas
Current Conditions -  °F | °C
As of 4:53 PM on Sunday 21 Dec 2014 (Local Time) from KLLQ Reporting Station
Clear Clear  
Wind Chill: 54°   Ceiling: Unl
Heat Index: 54°   Visibility: 10mi
Dew Point: 38°   Wind: 6mph
Humidity: 55%   Direction: 120°ESE
Pressure: 29.98"   Gusts: NA
Location:  33.3267°N, 91.5515°W
Report Text: KLLQ 212253Z AUTO 12005KT 10SM CLR 12/03 A2998 RMK AO2 SLP151 T01220033
Loading
Personal Weather Stations






























Interactive Weather Map New forecast layout! Learn more

10-Day Weather Forecast

Advertisements
Track Severe Weather on mobile